Aplicació Alertes

Dades de l'estació automàtica les Borges Blanques

?
?
Resum diari 22:30 TU
Dades diàries de l'estació meteorològica
Temperatura mitjana 5.3 °C
Temperatura màxima 9.4 °C 14:53 TU
Temperatura mínima 0.8 °C 6:25 TU
Humitat relativa mitjana 65%
Precipitació acumulada 0.0 mm
Ratxa màxima del vent (10 m) 31.0 km/h - 280º 13:08 TU
Pressió atmosfèrica mitjana 1028.8 hPa
Irradiació solar global 8.7 MJ/m2

El tram horari està expressat en Temps Universal (TU). Cal sumar una hora en horari d'hivern i dues en horari d'estiu per passar a l'hora oficial.

les Borges Blanques

Metadades estació meteorol´gica
Municipi Les Borges Blanques
Comarca Garrigues
Altitud 283 m
Data alta 25.01.2017
Estat actual Operativa
Dades de període
Període
TU
TM
°C
TX
°C
TN
°C
HRM
%
PPT
mm
VVM (10 m)
km/h
DVM (10 m)
graus
VVX (10 m)
km/h
PM
hPa
RS
W/m2
00:00 - 00:30 3.4 3.5 3.3 74 0.0 14.0 246 20.9 1025.8 0
00:30 - 01:00 3.3 3.5 3.1 74 0.0 11.9 251 20.5 1026.0 0
01:00 - 01:30 3.1 3.2 3.1 75 0.0 7.9 246 15.8 1026.4 0
01:30 - 02:00 3.1 3.2 3.0 74 0.0 8.3 240 13.3 1026.3 0
02:00 - 02:30 3.3 3.5 3.1 72 0.0 7.6 211 14.0 1026.6 0
02:30 - 03:00 3.3 3.5 3.2 71 0.0 9.0 242 18.0 1026.5 0
03:00 - 03:30 2.9 3.2 2.5 72 0.0 5.0 257 13.3 1026.5 0
03:30 - 04:00 2.4 2.6 2.1 74 0.0 6.1 235 10.4 1026.8 0
04:00 - 04:30 2.2 2.5 1.8 75 0.0 7.6 224 14.8 1026.9 0
04:30 - 05:00 2.0 2.3 1.8 77 0.0 8.6 230 16.9 1027.3 0
05:00 - 05:30 1.9 2.3 1.3 76 0.0 6.5 215 14.4 1027.7 0
05:30 - 06:00 1.5 1.8 1.1 77 0.0 9.7 212 17.6 1027.9 0
06:00 - 06:30 1.3 2.0 0.8 77 0.0 9.4 194 19.1 1028.2 0
06:30 - 07:00 1.7 2.0 1.4 76 0.0 10.4 216 18.7 1028.7 0
07:00 - 07:30 2.0 2.1 1.9 77 0.0 14.8 220 23.8 1028.7 2
07:30 - 08:00 2.3 2.5 2.0 78 0.0 10.4 232 23.0 1029.1 40
08:00 - 08:30 2.6 3.0 2.3 78 0.0 7.9 255 19.4 1029.6 105
08:30 - 09:00 3.3 3.9 3.0 77 0.0 12.6 246 19.8 1029.7 157
09:00 - 09:30 4.5 5.0 3.9 72 0.0 11.2 262 22.0 1029.9 248
09:30 - 10:00 5.1 5.4 4.9 69 0.0 13.7 285 21.2 1030.5 313
10:00 - 10:30 5.4 5.8 5.3 68 0.0 15.5 275 23.4 1030.8 367
10:30 - 11:00 5.8 6.5 5.6 64 0.0 14.8 278 22.0 1030.6 408
11:00 - 11:30 6.6 6.9 6.2 60 0.0 14.4 277 21.6 1030.2 433
11:30 - 12:00 7.2 7.6 6.8 56 0.0 12.6 276 20.2 1030.0 443
12:00 - 12:30 7.7 8.1 7.4 55 0.0 14.0 276 25.9 1029.6 441
12:30 - 13:00 8.1 8.5 7.9 54 0.0 16.9 270 27.7 1028.9 424
13:00 - 13:30 8.6 8.8 8.3 51 0.0 16.6 273 31.0 1028.6 391
13:30 - 14:00 8.8 9.1 8.6 49 0.0 15.8 268 24.8 1028.5 349
14:00 - 14:30 9.1 9.2 9.0 48 0.0 14.8 284 25.2 1028.3 299
14:30 - 15:00 9.1 9.4 8.9 47 0.0 14.4 277 22.0 1028.3 221
15:00 - 15:30 9.2 9.3 8.8 46 0.0 13.0 275 20.9 1028.3 154
15:30 - 16:00 9.0 9.3 8.6 45 0.0 10.8 274 20.5 1028.6 77
16:00 - 16:30 7.5 8.5 5.9 49 0.0 5.0 225 9.7 1028.9 15
16:30 - 17:00 4.7 5.9 4.1 58 0.0 4.0 184 6.1 1029.3 0
17:00 - 17:30 5.0 7.7 3.8 60 0.0 7.6 214 17.3 1029.2 0
17:30 - 18:00 8.0 8.3 7.8 53 0.0 13.7 222 22.3 1028.7 0
18:00 - 18:30 7.8 8.1 7.5 56 0.0 15.1 220 24.1 1028.9 0
18:30 - 19:00 7.9 8.1 7.4 56 0.0 15.5 232 24.5 1029.3 0
19:00 - 19:30 7.0 7.4 6.8 59 0.0 13.3 247 22.3 1029.7 0
19:30 - 20:00 6.8 7.0 6.6 61 0.0 11.2 234 18.7 1030.2 0
20:00 - 20:30 6.4 6.6 6.2 63 0.0 9.4 233 16.6 1030.5 0
20:30 - 21:00 6.4 6.5 6.2 62 0.0 10.1 237 17.6 1030.5 0
21:00 - 21:30 6.4 6.7 6.1 61 0.0 11.2 234 23.8 1030.3 0
21:30 - 22:00 6.2 6.5 6.1 63 0.0 11.5 248 19.4 1030.4 0
22:00 - 22:30 6.0 6.1 5.8 65 0.0 12.2 253 19.1 1030.9 0
22:30 - 23:00 5.8 6.0 5.5 68 0.0 13.0 241 24.8 1031.3 0

Les dades en taronja només han passat un control de qualitat automàtic. Resta pendent la seva validació definitiva.